createdAt,value
2017-11-08T00:00:54.346Z,0
2017-11-08T00:01:56.704Z,0
2017-11-08T00:02:59.088Z,0
2017-11-08T00:04:01.598Z,0
2017-11-08T00:05:03.975Z,0
2017-11-08T00:06:06.460Z,0
2017-11-08T00:07:08.851Z,0
2017-11-08T00:08:11.226Z,0
2017-11-08T00:09:13.776Z,0
2017-11-08T00:10:16.861Z,0
2017-11-08T00:11:19.416Z,0
2017-11-08T00:12:22.139Z,0
2017-11-08T00:13:24.678Z,0
2017-11-08T00:14:27.042Z,0
2017-11-08T00:15:29.418Z,0
2017-11-08T00:16:31.981Z,0
2017-11-08T00:17:34.354Z,0
2017-11-08T00:18:36.829Z,0
2017-11-08T00:19:39.204Z,0
2017-11-08T00:20:41.570Z,0
2017-11-08T00:21:44.198Z,0
2017-11-08T00:22:46.918Z,0
2017-11-08T00:23:49.406Z,0
2017-11-08T00:24:51.770Z,0
2017-11-08T00:25:54.362Z,0
2017-11-08T00:26:56.717Z,0
2017-11-08T00:27:59.085Z,0
2017-11-08T00:29:01.971Z,0
2017-11-08T00:30:04.341Z,0
2017-11-08T00:31:06.715Z,0
2017-11-08T00:32:09.086Z,0
2017-11-08T00:33:11.801Z,0
2017-11-08T00:34:14.614Z,0
2017-11-08T00:35:17.001Z,0
2017-11-08T00:36:19.631Z,0
2017-11-08T00:37:22.005Z,0
2017-11-08T00:38:24.383Z,0
2017-11-08T00:39:26.749Z,0
2017-11-08T00:40:29.136Z,0
2017-11-08T00:41:31.597Z,0
2017-11-08T00:42:33.963Z,0
2017-11-08T00:43:36.407Z,0
2017-11-08T00:44:38.826Z,0
2017-11-08T00:45:41.200Z,0
2017-11-08T00:46:43.660Z,0
2017-11-08T00:47:46.135Z,0
2017-11-08T00:48:48.620Z,0
2017-11-08T00:49:51.000Z,0
2017-11-08T00:50:53.367Z,0
2017-11-08T00:51:55.747Z,0
2017-11-08T00:52:58.468Z,0
2017-11-08T00:54:00.838Z,0
2017-11-08T00:55:03.224Z,0
2017-11-08T00:56:05.596Z,0
2017-11-08T00:57:08.022Z,0
2017-11-08T00:58:10.393Z,0
2017-11-08T00:59:13.378Z,0
2017-11-08T01:00:15.981Z,0
2017-11-08T01:01:18.467Z,0
2017-11-08T01:02:20.959Z,0
2017-11-08T01:03:23.676Z,0
2017-11-08T01:04:26.400Z,0
2017-11-08T01:05:28.768Z,0
2017-11-08T01:06:31.151Z,0
2017-11-08T01:07:33.520Z,0
2017-11-08T01:08:35.893Z,0
2017-11-08T01:09:38.261Z,0
2017-11-08T01:10:40.638Z,0
2017-11-08T01:11:43.006Z,0
2017-11-08T01:12:45.391Z,0
2017-11-08T01:13:47.748Z,0
2017-11-08T01:14:50.125Z,0
2017-11-08T01:15:52.491Z,0
2017-11-08T01:16:54.870Z,0
2017-11-08T01:17:57.248Z,0
2017-11-08T01:18:59.619Z,0
2017-11-08T01:20:01.992Z,0
2017-11-08T01:21:04.375Z,0
2017-11-08T01:22:06.743Z,0
2017-11-08T01:23:09.122Z,0
2017-11-08T01:24:11.506Z,0
2017-11-08T01:25:13.864Z,0
2017-11-08T01:26:16.589Z,0
2017-11-08T01:27:18.958Z,0
2017-11-08T01:28:21.330Z,0
2017-11-08T01:29:23.702Z,0
2017-11-08T01:30:26.086Z,0
2017-11-08T01:31:28.796Z,0
2017-11-08T01:32:31.177Z,0
2017-11-08T01:33:33.555Z,0
2017-11-08T01:34:35.914Z,0
2017-11-08T01:35:38.294Z,0
2017-11-08T01:36:40.659Z,0
2017-11-08T01:37:43.038Z,0
2017-11-08T01:38:45.420Z,0
2017-11-08T01:39:47.788Z,0
2017-11-08T01:40:50.159Z,0
2017-11-08T01:41:52.882Z,0
2017-11-08T01:42:55.271Z,0
2017-11-08T01:43:57.626Z,0
2017-11-08T01:45:00.006Z,0
2017-11-08T01:46:02.374Z,0
2017-11-08T01:47:04.766Z,0
2017-11-08T01:48:07.140Z,0
2017-11-08T01:49:09.506Z,0
2017-11-08T01:50:12.235Z,0
2017-11-08T01:51:14.955Z,0
2017-11-08T01:52:17.327Z,0
2017-11-08T01:53:19.710Z,0
2017-11-08T01:54:22.079Z,0
2017-11-08T01:55:24.456Z,0
2017-11-08T01:56:26.814Z,0
2017-11-08T01:57:29.179Z,0
2017-11-08T01:58:31.569Z,0
2017-11-08T01:59:33.930Z,0
2017-11-08T02:00:36.671Z,0
2017-11-08T02:01:39.039Z,0
2017-11-08T02:02:41.411Z,0
2017-11-08T02:03:43.788Z,0
2017-11-08T02:04:46.166Z,0
2017-11-08T02:05:48.527Z,0
2017-11-08T02:06:50.900Z,0
2017-11-08T02:07:53.278Z,0
2017-11-08T02:08:55.653Z,0
2017-11-08T02:09:58.032Z,0
2017-11-08T02:11:00.393Z,0
2017-11-08T02:12:02.764Z,0
2017-11-08T02:13:05.144Z,0
2017-11-08T02:14:07.518Z,0
2017-11-08T02:15:10.249Z,0
2017-11-08T02:16:12.980Z,0
2017-11-08T02:17:15.360Z,0
2017-11-08T02:18:17.734Z,0
2017-11-08T02:19:20.114Z,0
2017-11-08T02:20:22.474Z,0
2017-11-08T02:21:25.190Z,0
2017-11-08T02:22:27.578Z,0
2017-11-08T02:23:29.956Z,0
2017-11-08T02:24:32.326Z,0
2017-11-08T02:25:34.697Z,0
2017-11-08T02:26:37.071Z,0
2017-11-08T02:27:39.440Z,0
2017-11-08T02:28:41.812Z,0
2017-11-08T02:29:44.176Z,0
2017-11-08T02:30:46.551Z,0
2017-11-08T02:31:48.931Z,0
2017-11-08T02:32:51.305Z,0
2017-11-08T02:33:54.031Z,0
2017-11-08T02:34:56.765Z,0
2017-11-08T02:35:59.127Z,0
2017-11-08T02:37:01.507Z,0
2017-11-08T02:38:03.879Z,0
2017-11-08T02:39:06.254Z,0
2017-11-08T02:40:08.621Z,0
2017-11-08T02:41:11.000Z,0
2017-11-08T02:42:13.376Z,0
2017-11-08T02:43:15.755Z,0
2017-11-08T02:44:18.120Z,0
2017-11-08T02:45:20.839Z,0
2017-11-08T02:46:23.229Z,0
2017-11-08T02:47:25.598Z,0
2017-11-08T02:48:27.965Z,0
2017-11-08T02:49:30.347Z,0
2017-11-08T02:50:32.712Z,0
2017-11-08T02:51:35.086Z,0
2017-11-08T02:52:37.804Z,0
2017-11-08T02:53:40.532Z,0
2017-11-08T02:54:43.267Z,0
2017-11-08T02:55:45.979Z,0
2017-11-08T02:56:48.359Z,0
2017-11-08T02:57:51.082Z,0
2017-11-08T02:58:53.461Z,0
2017-11-08T02:59:55.836Z,0
2017-11-08T03:00:58.917Z,0
2017-11-08T03:02:01.662Z,0
2017-11-08T03:03:04.393Z,0
2017-11-08T03:04:06.771Z,0
2017-11-08T03:05:09.150Z,0
2017-11-08T03:06:11.524Z,0
2017-11-08T03:07:13.894Z,0
2017-11-08T03:08:16.272Z,0
2017-11-08T03:09:18.650Z,0
2017-11-08T03:10:21.019Z,0
2017-11-08T03:11:23.398Z,0
2017-11-08T03:12:25.773Z,0
2017-11-08T03:13:28.152Z,0
2017-11-08T03:14:30.518Z,0
2017-11-08T03:15:32.891Z,0
2017-11-08T03:16:35.259Z,0
2017-11-08T03:17:37.641Z,0
2017-11-08T03:18:40.015Z,0
2017-11-08T03:19:42.388Z,0
2017-11-08T03:20:44.756Z,0
2017-11-08T03:21:47.132Z,0
2017-11-08T03:22:49.504Z,0
2017-11-08T03:23:51.880Z,0
2017-11-08T03:24:54.250Z,0
2017-11-08T03:25:56.635Z,0
2017-11-08T03:26:58.999Z,0
2017-11-08T03:28:01.395Z,0
2017-11-08T03:29:03.757Z,0
2017-11-08T03:30:06.140Z,0
2017-11-08T03:31:08.510Z,0
2017-11-08T03:32:10.882Z,0
2017-11-08T03:33:13.256Z,0
2017-11-08T03:34:15.635Z,0
2017-11-08T03:35:18.005Z,0
2017-11-08T03:36:20.392Z,0
2017-11-08T03:37:23.120Z,0
2017-11-08T03:38:25.828Z,0
2017-11-08T03:39:28.553Z,0
2017-11-08T03:40:30.932Z,0
2017-11-08T03:41:33.299Z,0
2017-11-08T03:42:35.673Z,0
2017-11-08T03:43:38.040Z,0
2017-11-08T03:44:40.408Z,0
2017-11-08T03:45:42.810Z,0
2017-11-08T03:46:45.173Z,0
2017-11-08T03:47:47.548Z,0
2017-11-08T03:48:49.923Z,0
2017-11-08T03:49:52.294Z,0
2017-11-08T03:50:55.010Z,0
2017-11-08T03:51:57.373Z,0
2017-11-08T03:52:59.761Z,0
2017-11-08T03:54:02.515Z,0
2017-11-08T03:55:04.885Z,0
2017-11-08T03:56:07.263Z,0
2017-11-08T03:57:09.636Z,0
2017-11-08T03:58:12.015Z,0
2017-11-08T03:59:14.744Z,0
2017-11-08T04:00:17.108Z,0
2017-11-08T04:01:19.827Z,0
2017-11-08T04:02:22.209Z,0
2017-11-08T04:03:24.580Z,0
2017-11-08T04:04:26.951Z,0
2017-11-08T04:05:29.321Z,0
2017-11-08T04:06:31.694Z,0
2017-11-08T04:07:34.072Z,0
2017-11-08T04:08:36.437Z,0
2017-11-08T04:09:38.803Z,0
2017-11-08T04:10:41.181Z,0
2017-11-08T04:11:43.548Z,0
2017-11-08T04:12:46.619Z,0
2017-11-08T04:13:48.992Z,0
2017-11-08T04:14:51.365Z,0
2017-11-08T04:15:53.738Z,0
2017-11-08T04:16:56.483Z,0
2017-11-08T04:17:58.855Z,0
2017-11-08T04:19:01.228Z,0
2017-11-08T04:20:03.604Z,0
2017-11-08T04:21:06.324Z,0
2017-11-08T04:22:08.711Z,0
2017-11-08T04:23:11.150Z,0
2017-11-08T04:24:13.532Z,0
2017-11-08T04:25:15.912Z,0
2017-11-08T04:26:18.272Z,0
2017-11-08T04:27:20.648Z,0
2017-11-08T04:28:23.409Z,0
2017-11-08T04:29:25.784Z,0
2017-11-08T04:30:28.156Z,0
2017-11-08T04:31:30.523Z,0
2017-11-08T04:32:32.903Z,0
2017-11-08T04:33:35.278Z,0
2017-11-08T04:34:37.651Z,0
2017-11-08T04:35:40.028Z,0
2017-11-08T04:36:42.756Z,0
2017-11-08T04:37:45.483Z,0
2017-11-08T04:38:47.856Z,0
2017-11-08T04:39:50.232Z,0
2017-11-08T04:40:52.600Z,0
2017-11-08T04:41:54.983Z,0
2017-11-08T04:42:57.350Z,0
2017-11-08T04:43:59.714Z,0
2017-11-08T04:45:02.114Z,0
2017-11-08T04:46:04.484Z,0
2017-11-08T04:47:06.863Z,0
2017-11-08T04:48:09.242Z,0
2017-11-08T04:49:11.628Z,0
2017-11-08T04:50:13.984Z,0
2017-11-08T04:51:16.733Z,0
2017-11-08T04:52:19.458Z,0
2017-11-08T04:53:21.828Z,0
2017-11-08T04:54:24.206Z,0
2017-11-08T04:55:26.928Z,0
2017-11-08T04:56:29.312Z,0
2017-11-08T04:57:31.688Z,0
2017-11-08T04:58:34.763Z,0
2017-11-08T04:59:37.145Z,0
2017-11-08T05:00:39.865Z,0
2017-11-08T05:01:42.238Z,0
2017-11-08T05:02:44.615Z,0
2017-11-08T05:03:46.980Z,0
2017-11-08T05:04:49.349Z,0
2017-11-08T05:05:52.069Z,0
2017-11-08T05:06:54.438Z,0
2017-11-08T05:07:56.824Z,0
2017-11-08T05:08:59.185Z,0
2017-11-08T05:10:01.561Z,0
2017-11-08T05:11:03.956Z,0
2017-11-08T05:12:06.322Z,0
2017-11-08T05:13:09.091Z,0
2017-11-08T05:14:11.470Z,0
2017-11-08T05:15:13.842Z,0
2017-11-08T05:16:16.226Z,0
2017-11-08T05:17:18.609Z,0
2017-11-08T05:18:20.966Z,0
2017-11-08T05:19:23.351Z,0
2017-11-08T05:20:26.087Z,0
2017-11-08T05:21:28.463Z,0
2017-11-08T05:22:30.841Z,0
2017-11-08T05:23:33.206Z,0
2017-11-08T05:24:35.577Z,0
2017-11-08T05:25:37.949Z,0
2017-11-08T05:26:40.331Z,0
2017-11-08T05:27:42.700Z,0
2017-11-08T05:28:45.074Z,0
2017-11-08T05:29:47.445Z,0
2017-11-08T05:30:49.825Z,0
2017-11-08T05:31:52.205Z,0
2017-11-08T05:32:54.572Z,0
2017-11-08T05:33:57.322Z,0
2017-11-08T05:34:59.703Z,0
2017-11-08T05:36:02.074Z,0
2017-11-08T05:37:04.447Z,0
2017-11-08T05:38:06.821Z,0
2017-11-08T05:39:09.196Z,0
2017-11-08T05:40:11.575Z,0
2017-11-08T05:41:13.938Z,0
2017-11-08T05:42:16.321Z,0
2017-11-08T05:43:18.696Z,0
2017-11-08T05:44:21.408Z,0
2017-11-08T05:45:23.790Z,0
2017-11-08T05:46:26.161Z,0
2017-11-08T05:47:28.544Z,0
2017-11-08T05:48:30.898Z,0
2017-11-08T05:49:33.278Z,0
2017-11-08T05:50:35.651Z,0
2017-11-08T05:51:38.025Z,4
2017-11-08T05:52:40.395Z,0
2017-11-08T05:53:42.776Z,0
2017-11-08T05:54:45.146Z,4
2017-11-08T05:55:47.528Z,4
2017-11-08T05:56:49.886Z,4
2017-11-08T05:57:52.260Z,4
2017-11-08T05:58:54.639Z,4
2017-11-08T05:59:57.013Z,8
2017-11-08T06:00:59.390Z,8
2017-11-08T06:02:01.766Z,8
2017-11-08T06:03:04.142Z,8
2017-11-08T06:04:06.511Z,8
2017-11-08T06:05:09.236Z,12
2017-11-08T06:06:11.959Z,16
2017-11-08T06:07:14.391Z,20
2017-11-08T06:08:16.771Z,20
2017-11-08T06:09:19.146Z,24
2017-11-08T06:10:21.525Z,28
2017-11-08T06:11:23.893Z,32
2017-11-08T06:12:26.625Z,36
2017-11-08T06:13:29.000Z,40
2017-11-08T06:14:31.376Z,40
2017-11-08T06:15:33.749Z,48
2017-11-08T06:16:36.152Z,56
2017-11-08T06:17:38.530Z,64
2017-11-08T06:18:40.900Z,68
2017-11-08T06:19:43.274Z,76
2017-11-08T06:20:45.655Z,92
2017-11-08T06:21:48.033Z,100
2017-11-08T06:22:50.403Z,112
2017-11-08T06:23:52.780Z,120
2017-11-08T06:24:55.156Z,136
2017-11-08T06:25:57.891Z,148
2017-11-08T06:27:00.272Z,160
2017-11-08T06:28:03.004Z,176
2017-11-08T06:29:05.368Z,192
2017-11-08T06:30:07.764Z,212
2017-11-08T06:31:10.135Z,240
2017-11-08T06:32:12.503Z,260
2017-11-08T06:33:14.885Z,280
2017-11-08T06:34:17.257Z,292
2017-11-08T06:35:19.636Z,312
2017-11-08T06:36:22.011Z,332
2017-11-08T06:37:24.392Z,348
2017-11-08T06:38:27.463Z,364
2017-11-08T06:39:29.850Z,388
2017-11-08T06:40:32.212Z,420
2017-11-08T06:41:34.592Z,436
2017-11-08T06:42:36.966Z,452
2017-11-08T06:43:39.338Z,480
2017-11-08T06:44:42.073Z,508
2017-11-08T06:45:44.446Z,540
2017-11-08T06:46:46.821Z,580
2017-11-08T06:47:49.204Z,620
2017-11-08T06:48:51.579Z,660
2017-11-08T06:49:53.952Z,716
2017-11-08T06:50:56.327Z,760
2017-11-08T06:51:58.705Z,796
2017-11-08T06:53:01.073Z,808
2017-11-08T06:54:03.440Z,808
2017-11-08T06:55:05.832Z,824
2017-11-08T06:56:08.202Z,864
2017-11-08T06:57:10.584Z,896
2017-11-08T06:58:12.960Z,932
2017-11-08T06:59:15.677Z,984
2017-11-08T07:00:18.056Z,1032
2017-11-08T07:01:20.429Z,1072
2017-11-08T07:02:23.152Z,1112
2017-11-08T07:03:25.532Z,1208
2017-11-08T07:04:28.282Z,1288
2017-11-08T07:05:30.647Z,1324
2017-11-08T07:06:33.371Z,1364
2017-11-08T07:07:35.751Z,1428
2017-11-08T07:08:38.469Z,1544
2017-11-08T07:09:40.850Z,1656
2017-11-08T07:10:43.219Z,1740
2017-11-08T07:11:45.942Z,1792
2017-11-08T07:12:48.321Z,1816
2017-11-08T07:13:50.696Z,1824
2017-11-08T07:14:53.416Z,1928
2017-11-08T07:15:55.795Z,2012
2017-11-08T07:16:58.170Z,2044
2017-11-08T07:18:00.555Z,2064
2017-11-08T07:19:02.941Z,2080
2017-11-08T07:20:05.311Z,2196
2017-11-08T07:21:07.687Z,2304
2017-11-08T07:22:10.434Z,2372
2017-11-08T07:23:12.804Z,2432
2017-11-08T07:24:15.186Z,2508
2017-11-08T07:25:17.906Z,2540
2017-11-08T07:26:20.280Z,2496
2017-11-08T07:27:22.658Z,2616
2017-11-08T07:28:25.064Z,2988
2017-11-08T07:29:27.776Z,3180
2017-11-08T07:30:30.157Z,3176
2017-11-08T07:31:32.527Z,3124
2017-11-08T07:32:34.900Z,3136
2017-11-08T07:33:37.281Z,3212
2017-11-08T07:34:39.653Z,3144
2017-11-08T07:35:42.018Z,2952
2017-11-08T07:36:44.403Z,2944
2017-11-08T07:37:46.774Z,2992
2017-11-08T07:38:49.148Z,2976
2017-11-08T07:39:51.516Z,2948
2017-11-08T07:40:53.893Z,3080
2017-11-08T07:41:56.267Z,3404
2017-11-08T07:42:58.643Z,3464
2017-11-08T07:44:01.400Z,3560
2017-11-08T07:45:03.802Z,3720
2017-11-08T07:46:06.165Z,3848
2017-11-08T07:47:08.557Z,3680
2017-11-08T07:48:10.916Z,3776
2017-11-08T07:49:13.296Z,3676
2017-11-08T07:50:15.674Z,3548
2017-11-08T07:51:18.054Z,3640
2017-11-08T07:52:20.446Z,3616
2017-11-08T07:53:22.883Z,3808
2017-11-08T07:54:25.320Z,4204
2017-11-08T07:55:27.769Z,5868
2017-11-08T07:56:30.208Z,6436
2017-11-08T07:57:32.686Z,7284
2017-11-08T07:58:35.138Z,8600
2017-11-08T07:59:37.607Z,9956
2017-11-08T08:00:40.084Z,10828
2017-11-08T08:01:42.557Z,11464
2017-11-08T08:02:44.988Z,12696
2017-11-08T08:03:47.419Z,13452
2017-11-08T08:04:49.884Z,12144
2017-11-08T08:05:52.719Z,11364
2017-11-08T08:06:55.177Z,10592
2017-11-08T08:07:57.612Z,10908
2017-11-08T08:09:00.398Z,10160
2017-11-08T08:10:02.844Z,9828
2017-11-08T08:11:05.377Z,8560
2017-11-08T08:12:07.804Z,7364
2017-11-08T08:13:10.271Z,6624
2017-11-08T08:14:12.717Z,5776
2017-11-08T08:15:16.225Z,4392
2017-11-08T08:16:18.721Z,3652
2017-11-08T08:17:21.169Z,3700
2017-11-08T08:18:23.617Z,4132
2017-11-08T08:19:26.151Z,4308
2017-11-08T08:20:28.581Z,5456
2017-11-08T08:21:31.089Z,6728
2017-11-08T08:22:33.548Z,6880
2017-11-08T08:23:35.992Z,7356
2017-11-08T08:24:38.547Z,7896
2017-11-08T08:25:40.973Z,9344
2017-11-08T08:26:43.544Z,9408
2017-11-08T08:27:46.336Z,9508
2017-11-08T08:28:49.190Z,10224
2017-11-08T08:29:51.802Z,10424
2017-11-08T08:30:54.235Z,9908
2017-11-08T08:31:56.677Z,10208
2017-11-08T08:32:59.463Z,10748
2017-11-08T08:34:01.905Z,10884
2017-11-08T08:35:04.337Z,11556
2017-11-08T08:36:06.788Z,13360
2017-11-08T08:37:09.228Z,16032
2017-11-08T08:38:11.646Z,19616
2017-11-08T08:39:14.093Z,16408
2017-11-08T08:40:16.892Z,15192
2017-11-08T08:41:19.338Z,14240
2017-11-08T08:42:21.777Z,13112
2017-11-08T08:43:24.558Z,11112
2017-11-08T08:44:26.988Z,10476
2017-11-08T08:45:29.453Z,10412
2017-11-08T08:46:32.008Z,9504
2017-11-08T08:47:34.441Z,8004
2017-11-08T08:48:36.874Z,8184
2017-11-08T08:49:39.306Z,8860
2017-11-08T08:50:41.729Z,8896
2017-11-08T08:51:44.170Z,10864
2017-11-08T08:52:46.963Z,10232
2017-11-08T08:53:49.391Z,9340
2017-11-08T08:54:51.829Z,14880
2017-11-08T08:55:54.257Z,20800
2017-11-08T08:56:56.704Z,19968
2017-11-08T08:57:59.141Z,14496
2017-11-08T08:59:01.592Z,10104
2017-11-08T09:00:04.009Z,9436
2017-11-08T09:01:06.462Z,9392
2017-11-08T09:02:09.240Z,8456
2017-11-08T09:03:11.678Z,8360
2017-11-08T09:04:14.114Z,8288
2017-11-08T09:05:16.546Z,8380
2017-11-08T09:06:18.992Z,7948
2017-11-08T09:07:21.417Z,7788
2017-11-08T09:08:23.857Z,8112
2017-11-08T09:09:26.325Z,7812
2017-11-08T09:10:28.757Z,9236
2017-11-08T09:11:31.194Z,8316
2017-11-08T09:12:33.623Z,7984
2017-11-08T09:13:36.056Z,8332
2017-11-08T09:14:38.500Z,8204
2017-11-08T09:15:40.941Z,8388
2017-11-08T09:16:43.356Z,8044
2017-11-08T09:17:45.794Z,8692
2017-11-08T09:18:48.256Z,8268
2017-11-08T09:19:50.653Z,7700
2017-11-08T09:20:53.091Z,8216
2017-11-08T09:21:55.522Z,8952
2017-11-08T09:22:57.954Z,12220
2017-11-08T09:24:00.396Z,11764
2017-11-08T09:25:02.832Z,12788
2017-11-08T09:26:05.257Z,15048
2017-11-08T09:27:07.701Z,13892
2017-11-08T09:28:10.507Z,12204
2017-11-08T09:29:12.995Z,13692
2017-11-08T09:30:15.424Z,26528
2017-11-08T09:31:17.866Z,28160
2017-11-08T09:32:20.301Z,31136
2017-11-08T09:33:22.745Z,35968
2017-11-08T09:34:25.198Z,36352
2017-11-08T09:35:27.623Z,32704
2017-11-08T09:36:30.061Z,32224
2017-11-08T09:37:32.497Z,32768
2017-11-08T09:38:34.931Z,31648
2017-11-08T09:39:37.358Z,31584
2017-11-08T09:40:39.794Z,28512
2017-11-08T09:41:42.222Z,35296
2017-11-08T09:42:44.674Z,31712
2017-11-08T09:43:47.103Z,31136
2017-11-08T09:44:49.906Z,21568
2017-11-08T09:45:52.344Z,17264
2017-11-08T09:46:54.786Z,17240
2017-11-08T09:47:57.256Z,23200
2017-11-08T09:48:59.664Z,17420
2017-11-08T09:50:02.103Z,15832
2017-11-08T09:51:04.548Z,14616
2017-11-08T09:52:06.977Z,15672
2017-11-08T09:53:09.409Z,17088
2017-11-08T09:54:12.231Z,19104
2017-11-08T09:55:14.663Z,16392
2017-11-08T09:56:17.097Z,22592
2017-11-08T09:57:20.256Z,19712
2017-11-08T09:58:22.687Z,22144
2017-11-08T09:59:25.146Z,25280
2017-11-08T10:00:27.563Z,21888
2017-11-08T10:01:30.004Z,22976
2017-11-08T10:02:32.438Z,25760
2017-11-08T10:03:34.874Z,18304
2017-11-08T10:04:37.315Z,14396
2017-11-08T10:05:40.105Z,13772
2017-11-08T10:06:42.601Z,14904
2017-11-08T10:07:45.000Z,15436
2017-11-08T10:08:47.420Z,17228
2017-11-08T10:09:49.990Z,18560
2017-11-08T10:10:52.300Z,15288
2017-11-08T10:11:55.153Z,20992
2017-11-08T10:12:57.566Z,21792
2017-11-08T10:14:00.453Z,21120
2017-11-08T10:15:02.912Z,27680
2017-11-08T10:16:05.794Z,21216
2017-11-08T10:17:09.126Z,18880
2017-11-08T10:18:11.615Z,18528
2017-11-08T10:19:13.998Z,15064
2017-11-08T10:20:16.444Z,10408
2017-11-08T10:21:18.885Z,12296
2017-11-08T10:22:21.311Z,13804
2017-11-08T10:23:23.760Z,25152
2017-11-08T10:24:26.193Z,21120
2017-11-08T10:25:28.647Z,14408
2017-11-08T10:26:31.083Z,11040
2017-11-08T10:27:33.521Z,8104
2017-11-08T10:28:36.007Z,6936
2017-11-08T10:29:38.754Z,7796
2017-11-08T10:30:41.190Z,9236
2017-11-08T10:31:43.982Z,10372
2017-11-08T10:32:46.417Z,10636
2017-11-08T10:33:48.857Z,9312
2017-11-08T10:34:51.290Z,8608
2017-11-08T10:35:53.727Z,9124
2017-11-08T10:36:56.165Z,8604
2017-11-08T10:37:58.961Z,7384
2017-11-08T10:39:01.405Z,7424
2017-11-08T10:40:03.839Z,6952
2017-11-08T10:41:06.268Z,7736
2017-11-08T10:42:09.043Z,7412
2017-11-08T10:43:15.718Z,7188
2017-11-08T10:44:18.156Z,7700
2017-11-08T10:45:20.585Z,9084
2017-11-08T10:46:23.418Z,8720
2017-11-08T10:47:25.844Z,8640
2017-11-08T10:48:28.632Z,9168
2017-11-08T10:49:31.441Z,9056
2017-11-08T10:50:33.867Z,10176
2017-11-08T10:51:36.297Z,9592
2017-11-08T10:52:38.733Z,9748
2017-11-08T10:53:41.165Z,11040
2017-11-08T10:54:43.604Z,11184
2017-11-08T10:55:46.041Z,9436
2017-11-08T10:56:48.461Z,9532
2017-11-08T10:57:50.895Z,9928
2017-11-08T10:58:53.341Z,9868
2017-11-08T10:59:55.769Z,8748
2017-11-08T11:00:58.205Z,7988
2017-11-08T11:02:00.632Z,7852
2017-11-08T11:03:03.066Z,7768
2017-11-08T11:04:05.502Z,6512
2017-11-08T11:05:07.935Z,5328
2017-11-08T11:06:10.357Z,4912
2017-11-08T11:07:12.797Z,4992
2017-11-08T11:08:15.582Z,4052
2017-11-08T11:09:18.011Z,3280
2017-11-08T11:10:20.437Z,2968
2017-11-08T11:11:22.870Z,3084
2017-11-08T11:12:25.659Z,3016
2017-11-08T11:13:28.098Z,2664
2017-11-08T11:14:30.890Z,2580
2017-11-08T11:15:33.316Z,2444
2017-11-08T11:16:35.755Z,2344
2017-11-08T11:17:38.552Z,2356
2017-11-08T11:18:40.976Z,2896
2017-11-08T11:19:43.417Z,3748
2017-11-08T11:20:45.844Z,4676
2017-11-08T11:21:48.276Z,5992
2017-11-08T11:22:50.711Z,6696
2017-11-08T11:23:53.140Z,5980
2017-11-08T11:24:55.575Z,5388
2017-11-08T11:25:58.000Z,4912
2017-11-08T11:27:00.431Z,5084
2017-11-08T11:28:03.215Z,5164
2017-11-08T11:29:05.658Z,5448
2017-11-08T11:30:08.457Z,4828
2017-11-08T11:31:10.893Z,3892
2017-11-08T11:32:13.325Z,3216
2017-11-08T11:33:15.758Z,3004
2017-11-08T11:34:18.189Z,3324
2017-11-08T11:35:20.623Z,3744
2017-11-08T11:36:23.049Z,3808
2017-11-08T11:37:25.491Z,3756
2017-11-08T11:38:27.924Z,4008
2017-11-08T11:39:30.348Z,4648
2017-11-08T11:40:32.782Z,4920
2017-11-08T11:41:35.213Z,4644
2017-11-08T11:42:37.642Z,4696
2017-11-08T11:43:40.078Z,5500
2017-11-08T11:44:42.505Z,5552
2017-11-08T11:45:44.943Z,5068
2017-11-08T11:46:47.374Z,4812
2017-11-08T11:47:49.792Z,3888
2017-11-08T11:48:52.238Z,4536
2017-11-08T11:49:54.673Z,3820
2017-11-08T11:50:57.099Z,3076
2017-11-08T11:51:59.536Z,3028
2017-11-08T11:53:01.966Z,3008
2017-11-08T11:54:04.771Z,3028
2017-11-08T11:55:07.202Z,3148
2017-11-08T11:56:09.622Z,3168
2017-11-08T11:57:12.054Z,3552
2017-11-08T11:58:14.491Z,4720
2017-11-08T11:59:16.925Z,5656
2017-11-08T12:00:19.707Z,5804
2017-11-08T12:01:22.133Z,5092
2017-11-08T12:02:24.551Z,5392
2017-11-08T12:03:27.354Z,5308
2017-11-08T12:04:30.140Z,4464
2017-11-08T12:05:32.563Z,4284
2017-11-08T12:06:35.355Z,4276
2017-11-08T12:07:37.797Z,4216
2017-11-08T12:08:40.227Z,3844
2017-11-08T12:09:42.668Z,3824
2017-11-08T12:10:45.090Z,4068
2017-11-08T12:11:47.518Z,4096
2017-11-08T12:12:49.974Z,3720
2017-11-08T12:13:52.410Z,3232
2017-11-08T12:14:54.826Z,3204
2017-11-08T12:15:57.264Z,3312
2017-11-08T12:16:59.694Z,2924
2017-11-08T12:18:02.146Z,2896
2017-11-08T12:19:04.593Z,3080
2017-11-08T12:20:07.031Z,3264
2017-11-08T12:21:09.454Z,3492
2017-11-08T12:22:11.917Z,3764
2017-11-08T12:23:14.344Z,3892
2017-11-08T12:24:16.766Z,4280
2017-11-08T12:25:19.550Z,4784
2017-11-08T12:26:21.980Z,5036
2017-11-08T12:27:24.412Z,4852
2017-11-08T12:28:26.848Z,5096
2017-11-08T12:29:29.275Z,5384
2017-11-08T12:30:31.727Z,4968
2017-11-08T12:31:34.533Z,4912
2017-11-08T12:32:36.966Z,4716
2017-11-08T12:33:39.395Z,4364
2017-11-08T12:34:42.197Z,4140
2017-11-08T12:35:44.623Z,3876
2017-11-08T12:36:47.425Z,3868
2017-11-08T12:37:49.858Z,3712
2017-11-08T12:38:52.285Z,3576
2017-11-08T12:39:54.728Z,3592
2017-11-08T12:40:57.156Z,4448
2017-11-08T12:41:59.592Z,5836
2017-11-08T12:43:02.021Z,7988
2017-11-08T12:44:04.455Z,10668
2017-11-08T12:45:06.943Z,15692
2017-11-08T12:46:09.373Z,13892
2017-11-08T12:47:11.811Z,14768
2017-11-08T12:48:14.249Z,15904
2017-11-08T12:49:16.684Z,13704
2017-11-08T12:50:19.115Z,10052
2017-11-08T12:51:21.897Z,8500
2017-11-08T12:52:24.329Z,8352
2017-11-08T12:53:26.763Z,8356
2017-11-08T12:54:29.191Z,7968
2017-11-08T12:55:31.627Z,8012
2017-11-08T12:56:34.410Z,8076
2017-11-08T12:57:36.853Z,8820
2017-11-08T12:58:39.649Z,9584
2017-11-08T12:59:42.087Z,10476
2017-11-08T13:00:44.527Z,10676
2017-11-08T13:01:46.959Z,9660
2017-11-08T13:02:49.384Z,8508
2017-11-08T13:03:51.815Z,7972
2017-11-08T13:04:54.253Z,8896
2017-11-08T13:05:56.681Z,9684
2017-11-08T13:06:59.118Z,10172
2017-11-08T13:08:01.547Z,11224
2017-11-08T13:09:03.980Z,11736
2017-11-08T13:10:06.763Z,12628
2017-11-08T13:11:09.197Z,13136
2017-11-08T13:12:11.637Z,13012
2017-11-08T13:13:14.426Z,12052
2017-11-08T13:14:16.867Z,11708
2017-11-08T13:15:19.289Z,12740
2017-11-08T13:16:21.729Z,14440
2017-11-08T13:17:24.169Z,16336
2017-11-08T13:18:26.598Z,17760
2017-11-08T13:19:29.024Z,15828
2017-11-08T13:20:31.466Z,13944
2017-11-08T13:21:33.911Z,12060
2017-11-08T13:22:36.348Z,10840
2017-11-08T13:23:38.781Z,9520
2017-11-08T13:24:41.222Z,8812
2017-11-08T13:25:43.655Z,7412
2017-11-08T13:26:46.090Z,6912
2017-11-08T13:27:48.525Z,6624
2017-11-08T13:28:50.953Z,6336
2017-11-08T13:29:53.745Z,5980
2017-11-08T13:30:56.176Z,5520
2017-11-08T13:31:58.608Z,5440
2017-11-08T13:33:01.055Z,5104
2017-11-08T13:34:03.477Z,4632
2017-11-08T13:35:05.914Z,4448
2017-11-08T13:36:08.344Z,4096
2017-11-08T13:37:10.777Z,3440
2017-11-08T13:38:13.916Z,3136
2017-11-08T13:39:16.378Z,3288
2017-11-08T13:40:19.201Z,3196
2017-11-08T13:41:21.649Z,3064
2017-11-08T13:42:24.080Z,3040
2017-11-08T13:43:26.513Z,3076
2017-11-08T13:44:28.951Z,2956
2017-11-08T13:45:31.759Z,3064
2017-11-08T13:46:34.197Z,3232
2017-11-08T13:47:36.618Z,3108
2017-11-08T13:48:39.057Z,2956
2017-11-08T13:49:41.906Z,2868
2017-11-08T13:50:44.689Z,2816
2017-11-08T13:51:47.133Z,2996
2017-11-08T13:52:49.561Z,2876
2017-11-08T13:53:52.338Z,3032
2017-11-08T13:54:55.156Z,3168
2017-11-08T13:55:57.582Z,3504
2017-11-08T13:57:00.013Z,3880
2017-11-08T13:58:02.834Z,4192
2017-11-08T13:59:05.271Z,4208
2017-11-08T14:00:07.707Z,4044
2017-11-08T14:01:10.520Z,3868
2017-11-08T14:02:12.957Z,3484
2017-11-08T14:03:15.395Z,3208
2017-11-08T14:04:17.820Z,2992
2017-11-08T14:05:20.622Z,2880
2017-11-08T14:06:23.053Z,2676
2017-11-08T14:07:25.479Z,2600
2017-11-08T14:08:28.285Z,2696
2017-11-08T14:09:30.722Z,2844
2017-11-08T14:10:33.154Z,2888
2017-11-08T14:11:35.588Z,3072
2017-11-08T14:12:38.021Z,3424
2017-11-08T14:13:40.821Z,3428
2017-11-08T14:14:43.248Z,3108
2017-11-08T14:15:45.677Z,2796
2017-11-08T14:16:48.475Z,2816
2017-11-08T14:17:50.920Z,2968
2017-11-08T14:18:53.347Z,2840
2017-11-08T14:19:55.787Z,2640
2017-11-08T14:20:58.212Z,2560
2017-11-08T14:22:00.650Z,2540
2017-11-08T14:23:03.076Z,2432
2017-11-08T14:24:05.881Z,2456
2017-11-08T14:25:09.031Z,2428
2017-11-08T14:26:11.469Z,2428